Time;durP1;ratioP1;P1;durP2;ratioP2;P2;SDS_P1;SDS_P2;PMS_P1;PMS_P2;Temp;Humidity;BMP_temperature;BMP_pressure;BME280_temperature;BME280_humidity;BME280_pressure;Samples;Min_cycle;Max_cycle;Signal;HPM_P1;HPM_P2
2021/01/01 00:01:43;;;;;;;31.48;13.68;;;1.40;99.90;;;;;;5050860;28;20492;-66
2021/01/01 00:04:10;;;;;;;23.75;13.07;;;1.30;99.90;;;;;;5049797;28;20052;-66
2021/01/01 00:06:39;;;;;;;25.00;13.15;;;1.30;99.90;;;;;;5050853;28;20496;-66
2021/01/01 00:09:06;;;;;;;27.25;12.77;;;1.30;99.90;;;;;;5048487;28;20040;-66
2021/01/01 00:11:33;;;;;;;28.58;14.18;;;1.30;99.90;;;;;;5051420;28;20128;-66
2021/01/01 00:13:59;;;;;;;29.50;14.85;;;1.30;99.90;;;;;;5047832;28;20132;-66
2021/01/01 00:16:26;;;;;;;26.42;13.77;;;1.30;99.90;;;;;;5051050;28;20128;-66
2021/01/01 00:18:52;;;;;;;33.70;15.98;;;1.30;99.90;;;;;;5047496;28;20132;-66
2021/01/01 00:21:19;;;;;;;42.22;17.20;;;1.30;99.90;;;;;;5051218;28;20403;-66
2021/01/01 00:23:45;;;;;;;122.75;26.38;;;1.30;99.90;;;;;;5047885;28;20053;-66
2021/01/01 00:26:13;;;;;;;92.60;20.33;;;1.20;99.90;;;;;;5050646;28;20088;-66
2021/01/01 00:28:43;;;;;;;96.70;19.25;;;1.10;99.90;;;;;;5043714;28;20045;-66
2021/01/01 00:31:15;;;;;;;53.42;17.92;;;1.10;99.90;;;;;;5051328;28;20075;-66
2021/01/01 00:33:41;;;;;;;41.50;18.80;;;1.00;99.90;;;;;;5046414;28;20515;-66
2021/01/01 00:36:08;;;;;;;60.35;18.23;;;1.00;99.90;;;;;;5051074;28;20045;-66
2021/01/01 00:38:36;;;;;;;53.92;19.33;;;0.90;99.90;;;;;;5043617;28;20045;-66
2021/01/01 00:41:06;;;;;;;58.67;19.63;;;0.90;99.90;;;;;;5050825;28;20496;-66
2021/01/01 00:43:33;;;;;;;42.17;15.88;;;0.90;99.90;;;;;;5045972;28;20048;-66
2021/01/01 00:46:00;;;;;;;48.40;19.00;;;0.90;99.90;;;;;;5050324;28;20049;-66
2021/01/01 00:48:26;;;;;;;42.80;18.20;;;0.90;99.90;;;;;;5047132;28;20041;-66
2021/01/01 00:50:52;;;;;;;37.13;17.23;;;0.80;99.90;;;;;;5050510;28;20133;-66
2021/01/01 00:53:18;;;;;;;71.82;21.23;;;0.80;99.90;;;;;;5048294;28;20041;-66
2021/01/01 00:55:45;;;;;;;58.70;17.88;;;0.80;99.90;;;;;;5049557;28;20554;-66
2021/01/01 00:58:12;;;;;;;37.50;15.32;;;0.70;99.90;;;;;;5046958;28;20131;-66
2021/01/01 01:00:38;;;;;;;48.28;17.27;;;0.70;99.90;;;;;;5050399;28;20047;-66
2021/01/01 01:03:04;;;;;;;40.28;17.30;;;0.60;99.90;;;;;;5045551;28;20052;-66
2021/01/01 01:05:30;;;;;;;36.45;17.95;;;0.60;99.90;;;;;;5050843;28;20063;-66
2021/01/01 01:07:57;;;;;;;30.88;14.05;;;0.60;99.90;;;;;;5047345;28;20055;-66
2021/01/01 01:10:23;;;;;;;28.45;13.20;;;0.60;99.90;;;;;;5050513;28;20045;-65
2021/01/01 01:12:50;;;;;;;34.33;14.07;;;0.60;99.90;;;;;;5048272;28;20136;-67
2021/01/01 01:15:16;;;;;;;30.50;12.98;;;0.60;99.90;;;;;;5049752;28;20132;-67
2021/01/01 01:17:42;;;;;;;27.27;13.90;;;0.50;99.90;;;;;;5046998;28;20526;-67
2021/01/01 01:20:09;;;;;;;31.98;14.52;;;0.50;99.90;;;;;;5050152;28;20128;-67
2021/01/01 01:22:36;;;;;;;29.13;13.85;;;0.50;99.90;;;;;;5046601;28;20397;-67
2021/01/01 01:25:03;;;;;;;26.60;13.40;;;0.50;99.90;;;;;;5049625;28;20132;-67
2021/01/01 01:27:29;;;;;;;25.10;13.20;;;0.50;99.90;;;;;;5045824;28;20135;-67
2021/01/01 01:29:56;;;;;;;25.88;13.48;;;0.50;99.90;;;;;;5050190;28;20041;-67
2021/01/01 01:32:22;;;;;;;26.35;13.38;;;0.50;99.90;;;;;;5047911;28;20059;-67
2021/01/01 01:34:49;;;;;;;23.95;11.93;;;0.40;99.90;;;;;;5050359;28;20444;-67
2021/01/01 01:37:15;;;;;;;28.55;13.55;;;0.40;99.90;;;;;;5047467;28;20140;-67
2021/01/01 01:39:41;;;;;;;26.05;13.23;;;0.40;99.90;;;;;;5049676;28;20057;-67
2021/01/01 01:42:08;;;;;;;26.48;13.13;;;0.40;99.90;;;;;;5047540;28;20049;-67
2021/01/01 01:44:34;;;;;;;33.40;14.30;;;0.40;99.90;;;;;;5044448;28;20093;-67
2021/01/01 01:47:00;;;;;;;28.23;14.10;;;0.40;99.90;;;;;;5046518;28;20057;-67
2021/01/01 01:49:28;;;;;;;32.28;15.38;;;0.40;99.90;;;;;;5045448;28;20049;-67
2021/01/01 01:51:55;;;;;;;29.35;15.27;;;0.40;99.90;;;;;;5047359;28;20037;-67
2021/01/01 01:54:22;;;;;;;38.20;15.50;;;0.40;99.90;;;;;;5049564;28;20041;-67
2021/01/01 01:56:49;;;;;;;39.92;17.17;;;0.40;99.90;;;;;;5046900;28;20400;-67
2021/01/01 01:59:18;;;;;;;33.65;16.60;;;0.40;99.90;;;;;;5044412;28;20040;-67
2021/01/01 02:01:45;;;;;;;47.05;19.13;;;0.40;99.90;;;;;;5048289;28;20147;-67
2021/01/01 02:04:11;;;;;;;56.47;19.40;;;0.40;99.90;;;;;;5046060;28;20059;-67
2021/01/01 02:06:41;;;;;;;81.40;23.02;;;0.40;99.90;;;;;;5046094;28;20491;-67
2021/01/01 02:09:13;;;;;;;62.85;21.20;;;0.40;99.90;;;;;;5050699;28;20072;-67
2021/01/01 02:11:42;;;;;;;81.80;23.40;;;0.40;99.90;;;;;;5052290;28;20167;-67
2021/01/01 02:14:09;;;;;;;97.77;26.47;;;0.40;99.90;;;;;;5048183;28;20556;-67
2021/01/01 02:16:37;;;;;;;61.20;21.63;;;0.40;99.90;;;;;;5052944;28;20295;-67
2021/01/01 02:19:03;;;;;;;65.00;21.58;;;0.30;99.90;;;;;;5051683;28;20045;-67
2021/01/01 02:21:30;;;;;;;57.60;20.88;;;0.30;99.90;;;;;;5053380;28;20041;-67
2021/01/01 02:23:56;;;;;;;38.88;17.60;;;0.30;99.90;;;;;;5050614;28;20056;-67
2021/01/01 02:26:23;;;;;;;38.00;19.58;;;0.30;99.90;;;;;;5052031;28;20045;-67
2021/01/01 02:28:49;;;;;;;39.70;18.95;;;0.30;99.90;;;;;;5047918;28;20041;-67
2021/01/01 02:31:15;;;;;;;48.55;20.38;;;0.30;99.90;;;;;;5053142;28;20049;-67
2021/01/01 02:33:42;;;;;;;40.42;18.67;;;0.30;99.90;;;;;;5046849;28;20132;-67
2021/01/01 02:36:10;;;;;;;38.97;17.55;;;0.30;99.90;;;;;;5052491;28;20348;-67
2021/01/01 02:38:38;;;;;;;38.53;18.63;;;0.30;99.90;;;;;;5039295;28;20041;-67
2021/01/01 02:41:06;;;;;;;37.40;19.30;;;0.30;99.90;;;;;;5052705;28;20614;-67
2021/01/01 02:43:33;;;;;;;41.67;19.08;;;0.30;99.90;;;;;;5048199;28;20045;-67
2021/01/01 02:45:59;;;;;;;44.15;20.55;;;0.30;99.90;;;;;;5052406;28;20055;-67
2021/01/01 02:48:25;;;;;;;38.72;18.33;;;0.30;99.90;;;;;;5048263;28;20131;-66
2021/01/01 02:50:52;;;;;;;46.75;19.60;;;0.20;99.90;;;;;;5052954;28;20044;-66
2021/01/01 02:53:19;;;;;;;41.13;18.95;;;0.30;99.90;;;;;;5047840;28;20152;-66
2021/01/01 02:55:46;;;;;;;43.60;19.83;;;0.30;99.90;;;;;;5052670;28;20129;-66
2021/01/01 02:58:12;;;;;;;46.50;21.02;;;0.30;99.90;;;;;;5048796;28;20470;-66
2021/01/01 03:00:39;;;;;;;42.72;20.00;;;0.30;99.90;;;;;;5052181;28;20055;-67
2021/01/01 03:03:06;;;;;;;48.13;22.05;;;0.30;99.90;;;;;;5048243;28;20128;-67
2021/01/01 03:05:33;;;;;;;42.30;21.27;;;0.30;99.90;;;;;;5052713;28;20114;-67
2021/01/01 03:08:00;;;;;;;44.70;21.90;;;0.30;99.90;;;;;;5043739;28;20682;-67
2021/01/01 03:10:26;;;;;;;50.35;23.25;;;0.40;99.90;;;;;;5052336;28;20520;-67
2021/01/01 03:12:52;;;;;;;50.05;22.42;;;0.40;99.90;;;;;;5047782;28;20055;-67
2021/01/01 03:15:19;;;;;;;45.05;23.05;;;0.40;99.90;;;;;;5051704;28;20368;-67
2021/01/01 03:17:45;;;;;;;53.35;24.10;;;0.50;99.90;;;;;;5047700;28;20147;-67
2021/01/01 03:20:12;;;;;;;58.40;25.23;;;0.50;99.90;;;;;;5052620;28;20389;-67
2021/01/01 03:22:38;;;;;;;55.05;23.65;;;0.50;99.90;;;;;;5050059;28;20364;-67
2021/01/01 03:25:07;;;;;;;47.47;22.90;;;0.50;99.90;;;;;;5051102;28;20055;-66
2021/01/01 03:27:34;;;;;;;;;;;0.60;99.90;;;;;;5048215;28;20052;-66
2021/01/01 03:30:00;;;;;;;40.83;20.20;;;0.60;99.90;;;;;;5050888;28;19921;-66
2021/01/01 03:32:27;;;;;;;51.45;21.02;;;0.60;99.90;;;;;;5049758;28;20147;-66
2021/01/01 03:34:54;;;;;;;51.42;22.52;;;0.60;99.90;;;;;;5051787;28;20076;-66
2021/01/01 03:37:21;;;;;;;53.45;24.42;;;0.70;99.90;;;;;;5046600;28;20049;-66
2021/01/01 03:39:47;;;;;;;46.22;21.90;;;0.70;99.90;;;;;;5051822;28;20084;-66
2021/01/01 03:42:13;;;;;;;46.03;21.73;;;0.70;99.90;;;;;;5046619;28;20049;-66
2021/01/01 03:44:40;;;;;;;46.65;21.85;;;0.70;99.90;;;;;;5051322;28;20345;-66
2021/01/01 03:47:06;;;;;;;46.58;21.67;;;0.80;99.90;;;;;;5047785;28;20412;-66
2021/01/01 03:49:35;;;;;;;49.25;23.02;;;0.80;99.90;;;;;;5048590;28;20053;-66
2021/01/01 03:52:01;;;;;;;36.78;16.40;;;0.80;99.90;;;;;;5048716;28;20053;-66
2021/01/01 03:54:28;;;;;;;48.63;22.05;;;0.80;99.90;;;;;;5051633;28;20075;-66
2021/01/01 03:56:54;;;;;;;47.88;22.17;;;0.90;99.90;;;;;;5048318;28;20382;-66
2021/01/01 03:59:21;;;;;;;43.28;22.00;;;0.90;99.90;;;;;;5050358;28;20403;-66
2021/01/01 04:01:47;;;;;;;45.42;20.50;;;0.90;99.90;;;;;;5049187;28;20361;-67
2021/01/01 04:04:15;;;;;;;42.88;20.13;;;0.90;99.90;;;;;;5047928;28;20047;-67
2021/01/01 04:06:41;;;;;;;46.17;21.77;;;0.90;99.90;;;;;;5050563;28;20093;-67
2021/01/01 04:09:07;;;;;;;48.80;21.10;;;0.90;99.90;;;;;;5062072;28;20059;-67
2021/01/01 04:11:35;;;;;;;41.80;20.35;;;0.90;99.90;;;;;;5050830;28;20090;-65
2021/01/01 04:14:02;;;;;;;45.35;20.52;;;0.90;99.90;;;;;;5047319;28;20048;-65
2021/01/01 04:16:30;;;;;;;38.38;19.00;;;0.90;99.90;;;;;;5050339;28;20059;-65
2021/01/01 04:18:57;;;;;;;38.55;18.75;;;0.90;99.90;;;;;;5045856;28;20484;-65
2021/01/01 04:21:23;;;;;;;38.95;19.58;;;0.90;99.90;;;;;;5050834;28;20051;-65
2021/01/01 04:23:52;;;;;;;44.03;20.00;;;0.90;99.90;;;;;;5046322;28;20059;-65
2021/01/01 04:26:18;;;;;;;40.07;19.10;;;1.00;99.90;;;;;;5051208;28;20088;-65
2021/01/01 04:28:44;;;;;;;43.55;20.73;;;1.00;99.90;;;;;;5046512;28;20049;-65
2021/01/01 04:31:10;;;;;;;37.72;18.30;;;1.00;99.90;;;;;;5050048;28;20041;-65
2021/01/01 04:33:37;;;;;;;40.35;19.27;;;1.00;99.90;;;;;;5048877;28;20079;-65
2021/01/01 04:36:04;;;;;;;42.42;18.67;;;0.90;99.90;;;;;;5050364;28;20079;-65
2021/01/01 04:38:31;;;;;;;41.42;19.73;;;1.00;99.90;;;;;;5041837;28;20056;-65
2021/01/01 04:40:58;;;;;;;36.88;17.67;;;0.90;99.90;;;;;;5050236;28;20063;-65
2021/01/01 04:43:24;;;;;;;40.55;19.00;;;0.90;99.90;;;;;;5045458;28;20048;-65
2021/01/01 04:45:52;;;;;;;37.40;17.98;;;0.90;99.90;;;;;;5045406;28;20049;-65
2021/01/01 04:48:19;;;;;;;29.38;14.13;;;0.90;99.90;;;;;;5042288;28;20047;-65
2021/01/01 04:50:47;;;;;;;34.53;17.05;;;0.90;99.90;;;;;;5050430;28;20048;-65
2021/01/01 04:53:17;;;;;;;43.45;18.85;;;0.90;99.90;;;;;;5046130;28;20055;-65
2021/01/01 04:55:44;;;;;;;37.65;18.70;;;0.80;99.90;;;;;;5041124;28;20087;-65
2021/01/01 04:58:12;;;;;;;37.25;17.88;;;0.80;99.90;;;;;;5045736;28;20055;-65
2021/01/01 05:00:39;;;;;;;40.78;17.92;;;0.80;99.90;;;;;;5049904;28;20082;-65
2021/01/01 05:03:05;;;;;;;40.05;17.83;;;0.80;99.90;;;;;;5047141;28;20136;-65
2021/01/01 05:05:32;;;;;;;37.55;17.98;;;0.80;99.90;;;;;;5048459;28;20052;-65
2021/01/01 05:07:58;;;;;;;45.70;18.27;;;0.80;99.90;;;;;;5045761;28;20140;-65
2021/01/01 05:10:24;;;;;;;34.03;18.80;;;0.80;99.90;;;;;;5050163;28;20461;-65
2021/01/01 05:12:51;;;;;;;41.45;19.98;;;0.80;99.90;;;;;;5046409;28;20052;-65
2021/01/01 05:15:34;;;;;;;36.95;18.63;;;0.80;99.90;;;;;;5049376;28;20075;-65
2021/01/01 05:18:00;;;;;;;40.90;18.75;;;0.80;99.90;;;;;;5042887;28;20064;-65
2021/01/01 05:20:29;;;;;;;43.72;19.75;;;0.80;99.90;;;;;;5047041;28;20059;-65
2021/01/01 05:22:58;;;;;;;40.08;19.08;;;0.80;99.90;;;;;;5045315;28;20045;-65
2021/01/01 05:25:25;;;;;;;38.40;18.25;;;0.80;99.90;;;;;;5047842;28;20136;-65
2021/01/01 05:27:59;;;;;;;38.05;18.30;;;0.80;99.90;;;;;;5044411;28;20141;-65
2021/01/01 05:30:31;;;;;;;41.00;18.65;;;0.80;99.90;;;;;;5044939;28;20099;-65
2021/01/01 05:32:59;;;;;;;36.25;18.27;;;0.80;99.90;;;;;;5046033;28;20073;-65
2021/01/01 05:35:30;;;;;;;36.45;18.17;;;0.80;99.90;;;;;;5049808;28;20041;-65
2021/01/01 05:38:12;;;;;;;35.53;17.67;;;0.90;99.90;;;;;;5041116;28;20059;-65
2021/01/01 05:40:39;;;;;;;37.88;18.20;;;0.90;99.90;;;;;;5045825;28;20492;-66
2021/01/01 05:43:23;;;;;;;37.00;17.33;;;0.90;99.90;;;;;;5049112;28;20079;-66
2021/01/01 05:45:50;;;;;;;38.22;16.75;;;0.90;99.90;;;;;;5051799;28;20076;-66
2021/01/01 05:48:17;;;;;;;36.67;17.90;;;0.90;99.90;;;;;;5045517;28;20053;-66
2021/01/01 05:50:45;;;;;;;39.05;18.70;;;0.90;99.90;;;;;;5053719;28;20041;-66
2021/01/01 05:53:14;;;;;;;40.28;18.63;;;0.90;99.90;;;;;;5050788;28;20106;-66
2021/01/01 05:55:41;;;;;;;38.17;19.27;;;0.90;99.90;;;;;;5052963;28;20045;-66
2021/01/01 05:58:22;;;;;;;37.10;18.48;;;0.90;99.90;;;;;;5044783;28;20056;-66
2021/01/01 06:00:54;;;;;;;38.20;18.60;;;0.90;99.90;;;;;;5053152;28;20572;-66
2021/01/01 06:03:33;;;;;;;41.55;18.15;;;0.90;99.90;;;;;;5050447;28;20480;-67
2021/01/01 06:06:05;;;;;;;38.28;18.33;;;0.90;99.90;;;;;;5052762;28;20533;-66
2021/01/01 06:08:32;;;;;;;37.85;17.58;;;0.90;99.90;;;;;;5049750;28;20514;-66
2021/01/01 06:11:01;;;;;;;36.00;17.92;;;0.90;99.90;;;;;;5052779;28;20049;-67
2021/01/01 06:13:32;;;;;;;;;;;0.90;99.90;;;;;;5048584;28;20107;-67
2021/01/01 06:16:04;;;;;;;26.30;13.88;;;0.90;99.90;;;;;;5052049;28;19921;-67
2021/01/01 06:18:32;;;;;;;31.13;15.68;;;0.90;99.90;;;;;;5048827;28;20053;-67
2021/01/01 06:21:03;;;;;;;38.33;18.05;;;0.90;99.90;;;;;;5053214;28;20056;-67
2021/01/01 06:23:40;;;;;;;41.72;18.00;;;0.80;99.90;;;;;;5042822;28;20080;-67
2021/01/01 06:26:11;;;;;;;42.50;18.50;;;0.80;99.90;;;;;;5051662;28;20466;-67
2021/01/01 06:28:43;;;;;;;42.80;19.80;;;0.80;99.90;;;;;;5047028;28;20055;-67
2021/01/01 06:31:10;;;;;;;40.97;19.23;;;0.80;99.90;;;;;;5052469;28;20049;-67
2021/01/01 06:33:42;;;;;;;41.83;21.73;;;0.80;99.90;;;;;;5051217;28;20061;-67
2021/01/01 06:36:08;;;;;;;43.63;21.27;;;0.80;99.90;;;;;;5052676;28;20048;-66
2021/01/01 06:38:40;;;;;;;47.53;20.63;;;0.70;99.90;;;;;;5049008;28;20060;-67
2021/01/01 06:41:42;;;;;;;46.25;21.45;;;0.70;99.90;;;;;;5052221;28;20463;-67
2021/01/01 06:44:08;;;;;;;44.83;21.58;;;0.70;99.90;;;;;;5048032;28;20062;-66
2021/01/01 06:46:40;;;;;;;40.47;19.92;;;0.60;99.90;;;;;;5052056;28;20051;-66
2021/01/01 06:49:09;;;;;;;41.67;20.98;;;0.60;99.90;;;;;;5049516;28;20064;-66
2021/01/01 06:51:40;;;;;;;34.90;17.23;;;0.60;99.90;;;;;;5052534;28;20408;-66
2021/01/01 06:54:14;;;;;;;45.88;21.15;;;0.60;99.90;;;;;;5049695;28;20041;-65
2021/01/01 06:56:44;;;;;;;38.22;19.42;;;0.50;99.90;;;;;;5047983;28;20044;-65
2021/01/01 06:59:14;;;;;;;45.33;19.95;;;0.50;99.90;;;;;;5041429;28;20044;-65
2021/01/01 07:01:44;;;;;;;45.33;20.05;;;0.50;99.90;;;;;;5050274;28;20103;-66
2021/01/01 07:04:11;;;;;;;43.35;19.80;;;0.50;99.90;;;;;;5050265;28;20139;-66
2021/01/01 07:06:43;;;;;;;44.20;19.50;;;0.50;99.90;;;;;;5052461;28;20430;-66
2021/01/01 07:09:10;;;;;;;45.45;20.67;;;0.40;99.90;;;;;;5048056;28;20052;-66
2021/01/01 07:11:45;;;;;;;43.38;19.52;;;0.40;99.90;;;;;;5051843;28;20041;-66
2021/01/01 07:14:12;;;;;;;43.30;19.60;;;0.30;99.90;;;;;;5047484;28;20051;-66
2021/01/01 07:16:48;;;;;;;40.13;19.52;;;0.30;99.90;;;;;;5052024;28;20056;-66
2021/01/01 07:19:16;;;;;;;41.50;18.88;;;0.30;99.90;;;;;;5050682;28;20045;-66
2021/01/01 07:21:46;;;;;;;39.70;18.15;;;0.30;99.90;;;;;;5048475;28;20056;-65
2021/01/01 07:24:13;;;;;;;38.90;19.13;;;0.30;99.90;;;;;;5050656;28;20048;-66
2021/01/01 07:26:40;;;;;;;39.33;18.58;;;0.30;99.90;;;;;;5048691;28;20049;-66
2021/01/01 07:29:07;;;;;;;40.45;19.63;;;0.30;99.90;;;;;;5047364;28;20051;-66
2021/01/01 07:31:33;;;;;;;41.08;18.85;;;0.30;99.90;;;;;;5050695;28;20048;-66
2021/01/01 07:34:10;;;;;;;43.97;21.48;;;0.30;99.90;;;;;;5044449;28;20101;-66
2021/01/01 07:36:37;;;;;;;40.05;18.63;;;0.40;99.90;;;;;;5051356;28;20392;-67
2021/01/01 07:39:06;;;;;;;40.83;18.35;;;0.40;99.90;;;;;;5038255;28;20051;-66
2021/01/01 07:41:33;;;;;;;40.03;18.58;;;0.40;99.90;;;;;;5045529;28;20159;-66
2021/01/01 07:43:59;;;;;;;40.10;17.00;;;0.40;99.90;;;;;;5048990;28;20139;-66
2021/01/01 07:46:29;;;;;;;33.17;17.08;;;0.50;99.90;;;;;;5051044;28;20484;-66
2021/01/01 07:48:56;;;;;;;33.97;17.13;;;0.50;99.90;;;;;;5048092;28;20476;-66
2021/01/01 07:51:22;;;;;;;33.58;16.98;;;0.50;99.90;;;;;;5050436;28;20041;-66
2021/01/01 07:53:57;;;;;;;36.25;18.77;;;0.60;99.90;;;;;;5047248;28;20041;-66
2021/01/01 07:56:23;;;;;;;39.60;17.92;;;0.60;99.90;;;;;;5042124;28;20098;-68
2021/01/01 07:58:50;;;;;;;37.08;16.58;;;0.60;99.90;;;;;;5041840;28;20049;-67
2021/01/01 08:01:18;;;;;;;36.75;18.00;;;0.70;99.90;;;;;;5049885;28;20251;-67
2021/01/01 08:03:49;;;;;;;35.88;18.23;;;0.70;99.90;;;;;;5041556;28;20106;-67
2021/01/01 08:06:22;;;;;;;38.13;17.98;;;0.70;99.90;;;;;;5049651;28;20053;-67
2021/01/01 08:08:49;;;;;;;34.60;17.83;;;0.80;99.90;;;;;;5047446;28;20055;-67
2021/01/01 08:11:17;;;;;;;36.83;17.70;;;0.80;99.90;;;;;;5043652;28;20053;-67
2021/01/01 08:13:44;;;;;;;38.25;18.05;;;0.80;99.90;;;;;;5039444;28;20049;-66
2021/01/01 08:16:15;;;;;;;39.83;17.92;;;0.80;99.90;;;;;;5040496;28;20457;-66
2021/01/01 08:18:42;;;;;;;36.38;17.42;;;0.90;99.90;;;;;;5040045;28;20053;-66
2021/01/01 08:21:09;;;;;;;31.20;15.32;;;0.90;99.90;;;;;;5040055;28;20163;-66
2021/01/01 08:23:56;;;;;;;29.55;13.88;;;1.00;99.90;;;;;;5039619;28;20496;-67
2021/01/01 08:26:23;;;;;;;30.00;13.20;;;1.10;99.90;;;;;;5044327;28;20548;-67
2021/01/01 08:32:49;;;;;;;28.35;11.70;;;1.20;99.90;;;;;;5052701;28;20062;-67
2021/01/01 08:35:31;;;;;;;;;;;1.30;99.90;;;;;;5053420;28;20084;-66
2021/01/01 08:37:58;;;;;;;20.67;9.73;;;1.30;99.90;;;;;;5046178;28;19928;-66
2021/01/01 08:40:25;;;;;;;22.85;9.20;;;1.40;99.90;;;;;;5050583;28;20107;-66
2021/01/01 08:42:53;;;;;;;21.23;8.98;;;1.40;99.90;;;;;;5049047;28;20048;-66
2021/01/01 08:45:29;;;;;;;16.63;7.63;;;1.40;99.90;;;;;;5051230;28;20468;-66
2021/01/01 08:47:55;;;;;;;16.08;7.97;;;1.50;99.90;;;;;;5048298;28;20168;-66
2021/01/01 08:50:27;;;;;;;17.92;8.05;;;1.50;99.90;;;;;;5050366;28;20049;-66
2021/01/01 08:53:02;;;;;;;15.68;7.15;;;1.60;99.90;;;;;;5048929;28;20047;-66
2021/01/01 08:55:30;;;;;;;11.98;7.07;;;1.70;99.90;;;;;;5051629;28;20087;-66
2021/01/01 08:58:11;;;;;;;15.88;6.80;;;1.70;99.90;;;;;;5045524;28;20128;-66
2021/01/01 09:00:45;;;;;;;14.02;6.22;;;1.80;99.90;;;;;;5036027;28;20521;-66
2021/01/01 09:03:13;;;;;;;13.07;5.40;;;1.90;99.90;;;;;;5027862;28;20056;-66
2021/01/01 09:05:39;;;;;;;13.63;6.20;;;1.90;99.90;;;;;;5029735;28;20041;-66
2021/01/01 09:08:17;;;;;;;10.05;5.22;;;2.00;99.90;;;;;;5037792;28;20480;-66
2021/01/01 09:10:46;;;;;;;11.07;5.35;;;2.00;99.90;;;;;;5035425;28;20053;-66
2021/01/01 09:13:15;;;;;;;8.20;4.78;;;2.10;99.90;;;;;;5023224;28;20477;-65
2021/01/01 09:15:44;;;;;;;9.60;5.47;;;2.20;99.90;;;;;;5038376;28;20048;-65
2021/01/01 09:18:11;;;;;;;11.38;6.63;;;2.30;99.90;;;;;;5040301;28;20131;-66
2021/01/01 09:20:46;;;;;;;11.68;5.68;;;2.30;99.90;;;;;;5052838;28;20055;-66
2021/01/01 09:23:12;;;;;;;7.20;4.50;;;2.40;99.90;;;;;;5049348;28;20127;-66
2021/01/01 09:25:40;;;;;;;11.70;5.72;;;2.50;99.90;;;;;;5055440;28;20087;-66
2021/01/01 09:28:11;;;;;;;10.45;5.05;;;2.50;99.90;;;;;;5049135;28;20060;-66
2021/01/01 09:30:39;;;;;;;12.23;5.28;;;2.60;99.90;;;;;;5053035;28;20045;-66
2021/01/01 09:33:07;;;;;;;7.32;4.45;;;2.60;99.90;;;;;;5053684;28;20071;-66
2021/01/01 09:35:34;;;;;;;6.30;3.97;;;2.70;99.90;;;;;;5054367;28;20127;-66
2021/01/01 09:38:04;;;;;;;9.13;3.88;;;2.70;99.90;;;;;;5045665;28;20110;-66
2021/01/01 09:40:34;;;;;;;8.20;4.32;;;2.80;99.90;;;;;;5047291;28;20483;-66
2021/01/01 09:43:07;;;;;;;8.40;4.15;;;2.80;99.90;;;;;;5052133;28;20052;-65
2021/01/01 09:45:38;;;;;;;8.68;3.88;;;2.90;99.90;;;;;;5053883;28;20055;-65
2021/01/01 09:48:05;;;;;;;7.30;4.20;;;3.00;99.90;;;;;;5047621;28;20175;-66
2021/01/01 09:50:33;;;;;;;6.47;3.78;;;3.00;99.90;;;;;;5052728;28;20059;-66
2021/01/01 09:53:01;;;;;;;7.57;4.10;;;3.10;99.90;;;;;;5046572;28;20041;-67
2021/01/01 09:55:29;;;;;;;6.90;3.90;;;3.20;99.90;;;;;;5054073;28;20067;-66
2021/01/01 09:57:55;;;;;;;7.40;3.70;;;3.20;99.90;;;;;;5051908;28;20479;-66
2021/01/01 10:00:22;;;;;;;7.38;3.55;;;3.30;99.90;;;;;;5052754;28;20136;-66
2021/01/01 10:02:48;;;;;;;7.20;4.00;;;3.40;99.90;;;;;;5049338;28;20466;-66
2021/01/01 10:05:15;;;;;;;6.30;3.92;;;3.50;99.90;;;;;;5052141;28;20143;-66
2021/01/01 10:07:41;;;;;;;7.05;3.90;;;3.60;99.90;;;;;;5050176;28;20433;-66
2021/01/01 10:10:08;;;;;;;9.07;4.45;;;3.70;99.90;;;;;;5051999;28;20045;-66
2021/01/01 10:12:34;;;;;;;9.80;4.40;;;3.90;99.90;;;;;;5051446;28;20131;-65
2021/01/01 10:15:03;;;;;;;8.40;4.60;;;4.10;99.90;;;;;;5052255;28;20037;-66
2021/01/01 10:17:29;;;;;;;7.55;4.35;;;4.30;99.90;;;;;;5051372;28;20055;-66
2021/01/01 10:19:56;;;;;;;10.32;4.18;;;4.50;99.90;;;;;;5045909;28;20389;-66
2021/01/01 10:22:23;;;;;;;7.90;4.28;;;4.50;99.90;;;;;;5051191;28;20072;-66
2021/01/01 10:24:50;;;;;;;9.32;4.13;;;4.50;99.90;;;;;;5053373;28;20081;-66
2021/01/01 10:27:16;;;;;;;9.82;4.05;;;4.50;99.90;;;;;;5051346;28;20053;-66
2021/01/01 10:29:43;;;;;;;7.00;3.70;;;4.40;99.90;;;;;;5050659;28;20095;-65
2021/01/01 10:32:11;;;;;;;5.93;3.20;;;4.40;99.90;;;;;;5052579;28;20127;-66
2021/01/01 10:34:38;;;;;;;5.68;3.25;;;4.40;99.90;;;;;;5052369;28;20412;-66
2021/01/01 10:37:04;;;;;;;6.68;3.70;;;4.40;99.90;;;;;;5052684;28;20048;-66
2021/01/01 10:39:31;;;;;;;5.53;3.00;;;4.40;99.90;;;;;;5050990;28;20428;-66
2021/01/01 10:41:57;;;;;;;6.25;3.35;;;4.40;99.90;;;;;;5053539;28;20135;-66
2021/01/01 10:44:24;;;;;;;5.60;3.60;;;4.40;99.90;;;;;;5050248;28;20049;-66
2021/01/01 10:46:54;;;;;;;6.97;3.67;;;4.40;99.90;;;;;;5052154;28;20124;-66
2021/01/01 10:49:24;;;;;;;5.50;3.47;;;4.40;99.90;;;;;;5050903;28;20131;-66
2021/01/01 10:51:55;;;;;;;6.80;3.40;;;4.50;99.90;;;;;;5052275;28;20051;-66
2021/01/01 10:54:21;;;;;;;6.07;3.45;;;4.50;99.90;;;;;;5052340;28;20049;-66
2021/01/01 10:56:48;;;;;;;7.10;3.58;;;4.60;99.90;;;;;;5052062;28;20480;-66
2021/01/01 10:59:21;;;;;;;5.32;3.25;;;4.60;99.90;;;;;;5044307;28;20551;-66
2021/01/01 11:01:47;;;;;;;6.18;3.63;;;4.70;99.90;;;;;;5052320;28;20136;-66
2021/01/01 11:04:13;;;;;;;5.78;3.65;;;4.80;99.90;;;;;;5050349;28;20052;-66
2021/01/01 11:06:40;;;;;;;7.20;4.55;;;5.00;99.90;;;;;;5052547;28;20056;-66
2021/01/01 11:09:07;;;;;;;6.03;3.33;;;5.20;99.90;;;;;;5049030;28;20128;-66
2021/01/01 11:11:33;;;;;;;5.47;3.58;;;5.40;99.90;;;;;;5051966;28;20567;-66
2021/01/01 12:20:54;;;;;;;6.97;3.67;;;7.50;99.90;;;;;;5038202;28;20040;-67
2021/01/01 12:25:55;;;;;;;6.47;3.67;;;7.60;99.90;;;;;;5040445;28;20356;-67
2021/01/01 12:28:24;;;;;;;6.30;3.92;;;7.40;99.90;;;;;;5037511;28;20084;-67
2021/01/01 12:30:53;;;;;;;7.85;4.35;;;7.40;99.90;;;;;;5038238;28;21408;-67
2021/01/01 12:33:21;;;;;;;7.65;4.35;;;7.20;99.90;;;;;;5038217;28;20477;-67
2021/01/01 12:35:49;;;;;;;7.15;4.38;;;7.10;99.90;;;;;;5038741;28;20048;-66
2021/01/01 12:38:15;;;;;;;7.63;4.80;;;7.10;99.90;;;;;;5039096;28;20129;-67
2021/01/01 12:40:41;;;;;;;6.88;4.45;;;7.20;99.90;;;;;;5038958;28;20045;-66
2021/01/01 12:43:08;;;;;;;9.80;5.05;;;7.20;99.90;;;;;;5039295;28;20492;-66
2021/01/01 12:45:34;;;;;;;8.50;4.88;;;7.50;99.90;;;;;;5041089;28;20472;-66
2021/01/01 12:48:13;;;;;;;8.80;5.10;;;8.00;99.90;;;;;;5038907;28;20064;-66
2021/01/01 12:50:39;;;;;;;8.52;4.63;;;8.40;99.90;;;;;;5039440;28;20053;-67
2021/01/01 12:53:05;;;;;;;7.35;4.65;;;8.50;99.90;;;;;;5039632;28;20047;-67
2021/01/01 12:55:33;;;;;;;9.43;5.18;;;8.40;99.90;;;;;;5039243;28;20071;-67
2021/01/01 12:58:03;;;;;;;8.23;4.72;;;8.20;99.90;;;;;;5038375;28;20139;-67
2021/01/01 13:00:29;;;;;;;10.48;4.72;;;8.00;99.90;;;;;;5038410;28;20059;-67
2021/01/01 13:02:55;;;;;;;8.57;4.85;;;7.80;99.90;;;;;;5037059;28;20052;-67
2021/01/01 13:05:23;;;;;;;11.05;5.28;;;7.60;99.90;;;;;;5038556;28;20393;-67
2021/01/01 13:07:49;;;;;;;7.80;4.60;;;7.50;99.90;;;;;;5037417;28;20057;-67
2021/01/01 13:10:17;;;;;;;8.07;5.43;;;7.30;99.90;;;;;;5037299;28;20145;-67
2021/01/01 13:12:44;;;;;;;11.52;5.57;;;7.10;99.90;;;;;;5030732;28;20098;-67
2021/01/01 13:15:11;;;;;;;8.88;5.10;;;7.00;99.90;;;;;;5035288;28;20052;-67
2021/01/01 13:17:37;;;;;;;9.80;5.28;;;6.90;99.90;;;;;;5036671;28;20055;-67
2021/01/01 13:20:04;;;;;;;11.07;5.50;;;6.80;99.90;;;;;;5037001;28;20045;-67
2021/01/01 13:22:30;;;;;;;10.82;5.20;;;6.70;99.90;;;;;;5038265;28;20053;-66
2021/01/01 13:24:57;;;;;;;8.85;4.68;;;6.70;99.90;;;;;;5039961;28;20049;-67
2021/01/01 13:27:25;;;;;;;10.88;5.43;;;6.60;99.90;;;;;;5037657;28;20041;-67
2021/01/01 13:29:53;;;;;;;9.05;5.70;;;6.50;99.90;;;;;;5037497;28;20076;-67
2021/01/01 13:32:20;;;;;;;11.05;6.47;;;6.50;99.90;;;;;;5039221;28;20140;-67
2021/01/01 13:34:47;;;;;;;10.20;5.18;;;6.40;99.90;;;;;;5039620;28;20064;-67
2021/01/01 13:37:14;;;;;;;9.40;5.85;;;6.30;99.90;;;;;;5039898;28;20146;-67
2021/01/01 13:39:40;;;;;;;9.88;5.93;;;6.30;99.90;;;;;;5038223;28;20151;-67
2021/01/01 13:42:10;;;;;;;9.30;5.00;;;6.30;99.90;;;;;;5040395;28;20079;-67
2021/01/01 13:44:37;;;;;;;11.02;5.75;;;6.30;99.90;;;;;;5039047;28;20454;-67
2021/01/01 13:47:04;;;;;;;10.65;5.82;;;6.20;99.90;;;;;;5040414;28;20051;-67
2021/01/01 13:49:30;;;;;;;8.52;5.22;;;6.20;99.90;;;;;;5037633;28;20140;-67
2021/01/01 13:51:59;;;;;;;8.30;5.20;;;6.20;99.90;;;;;;5040346;28;20143;-66
2021/01/01 13:54:26;;;;;;;10.45;4.90;;;6.20;99.90;;;;;;5038151;28;20496;-66
2021/01/01 13:56:52;;;;;;;8.93;5.28;;;6.30;99.90;;;;;;5038739;28;20056;-67
2021/01/01 13:59:18;;;;;;;10.27;5.32;;;6.30;99.90;;;;;;5035053;28;20055;-67
2021/01/01 14:01:44;;;;;;;10.20;5.63;;;6.40;99.90;;;;;;5040330;28;20492;-67